Gallup, New Mexico
Current Conditions -  °F | °C
As of 12:53 AM on Thursday 29 Jan 2015 (Local Time) from KGUP Reporting Station
Few Clouds Few Clouds  
Wind Chill: 33°   Ceiling: Unl
Heat Index: 38°   Visibility: 10mi
Dew Point: 29°   Wind: 6mph
Humidity: 70%   Direction: 40°NE
Pressure: 30.29"   Gusts: NA
Location:  35.53°N, 108.74°W
Report Text: KGUP 290753Z AUTO 04005KT 10SM FEW120 03/M02 A3029 RMK AO2 SLP211 T00331017
Loading
Personal Weather Stations






























Interactive Weather Map New forecast layout! Learn more

10-Day Weather Forecast

Advertisements
Track Severe Weather on mobile